Time;durP1;ratioP1;P1;durP2;ratioP2;P2;SDS_P1;SDS_P2;PMS_P1;PMS_P2;Temp;Humidity;BMP_temperature;BMP_pressure;BME280_temperature;BME280_humidity;BME280_pressure;Samples;Min_cycle;Max_cycle;Signal;HPM_P1;HPM_P2
2022/06/05 04:01:41;;;;;;;15.60;11.55;;;11.40;99.90;;;;;;5342920;23;20248;-72
2022/06/05 04:04:08;;;;;;;14.52;11.13;;;11.50;99.90;;;;;;4947073;28;20216;-72
2022/06/05 04:06:35;;;;;;;15.02;11.77;;;11.50;99.90;;;;;;4946340;28;20309;-72
2022/06/05 04:09:06;;;;;;;12.82;11.27;;;11.60;99.90;;;;;;4960876;28;20217;-70
2022/06/05 04:11:35;;;;;;;11.32;9.85;;;11.60;99.90;;;;;;4952550;28;20299;-70
2022/06/05 04:14:02;;;;;;;16.67;11.07;;;11.70;99.90;;;;;;4954578;28;20220;-71
2022/06/05 04:16:32;;;;;;;13.50;11.00;;;11.80;99.90;;;;;;4953210;28;20316;-73
2022/06/05 04:19:01;;;;;;;13.98;11.48;;;11.80;99.90;;;;;;4962287;28;20212;-72
2022/06/05 04:21:30;;;;;;;15.40;12.40;;;11.90;99.90;;;;;;4948807;28;20248;-73
2022/06/05 04:23:58;;;;;;;12.60;10.57;;;12.40;99.90;;;;;;4959574;28;20314;-72
2022/06/05 04:26:30;;;;;;;8.93;8.27;;;13.20;99.90;;;;;;4951328;28;20492;-72
2022/06/05 04:28:57;;;;;;;8.93;8.23;;;14.30;99.90;;;;;;4961003;28;20974;-72
2022/06/05 04:31:26;;;;;;;9.37;8.67;;;15.30;99.90;;;;;;4946229;28;20489;-71
2022/06/05 04:33:56;;;;;;;8.53;7.80;;;16.20;99.90;;;;;;4960384;28;20827;-71
2022/06/05 04:36:25;;;;;;;9.20;8.40;;;17.10;99.90;;;;;;4958945;28;20479;-71
2022/06/05 04:38:52;;;;;;;9.07;8.57;;;17.80;99.90;;;;;;4959119;28;20455;-71
2022/06/05 04:41:19;;;;;;;8.03;7.50;;;18.30;99.90;;;;;;4953262;28;20493;-71
2022/06/05 04:43:46;;;;;;;8.57;8.07;;;18.70;99.90;;;;;;4956233;28;20475;-71
2022/06/05 04:46:13;;;;;;;9.43;8.53;;;18.80;99.90;;;;;;4951258;28;20463;-71
2022/06/05 04:48:40;;;;;;;8.47;7.87;;;19.30;99.90;;;;;;4962800;28;20467;-71
2022/06/05 04:51:08;;;;;;;8.83;8.30;;;19.70;99.90;;;;;;4961171;28;20569;-71
2022/06/05 04:53:37;;;;;;;7.90;7.50;;;20.10;99.90;;;;;;4956226;28;20555;-71
2022/06/05 04:56:04;;;;;;;8.40;7.83;;;20.50;99.90;;;;;;4967481;28;20468;-71
2022/06/05 04:58:31;;;;;;;8.50;8.03;;;21.00;99.90;;;;;;4975487;28;20511;-71
2022/06/05 05:00:58;;;;;;;9.30;8.60;;;21.30;99.90;;;;;;4951056;28;20501;-71
2022/06/05 05:03:25;;;;;;;8.60;7.90;;;21.80;99.90;;;;;;4945631;28;20481;-71
2022/06/05 05:05:51;;;;;;;8.80;8.30;;;22.10;99.90;;;;;;4949156;28;20476;-71
2022/06/05 05:08:18;;;;;;;8.50;8.10;;;22.30;99.90;;;;;;4951591;28;20472;-71
2022/06/05 05:10:47;;;;;;;7.93;7.53;;;22.40;99.90;;;;;;4954665;28;21008;-71
2022/06/05 05:13:14;;;;;;;7.57;7.20;;;22.50;99.90;;;;;;4954467;28;20968;-71
2022/06/05 05:15:41;;;;;;;7.77;7.37;;;22.60;99.90;;;;;;4963630;28;20471;-71
2022/06/05 05:18:08;;;;;;;6.57;6.27;;;22.90;99.90;;;;;;4953060;28;20494;-71
2022/06/05 05:20:34;;;;;;;8.50;8.00;;;23.10;99.90;;;;;;4954338;28;20494;-71
2022/06/05 05:23:01;;;;;;;7.33;7.00;;;22.90;99.90;;;;;;4952421;29;20469;-71
2022/06/05 05:25:28;;;;;;;7.43;7.03;;;23.20;99.90;;;;;;4958659;28;20470;-71
2022/06/05 05:27:56;;;;;;;6.80;6.40;;;23.40;99.90;;;;;;4950696;28;20476;-71
2022/06/05 05:30:23;;;;;;;7.00;6.70;;;23.80;99.90;;;;;;4957718;28;20468;-68
2022/06/05 05:32:50;;;;;;;5.40;5.23;;;24.20;99.90;;;;;;4950361;28;20479;-69
2022/06/05 05:35:18;;;;;;;5.40;5.20;;;24.20;99.90;;;;;;4961222;28;20642;-69
2022/06/05 05:37:45;;;;;;;5.80;5.60;;;24.20;99.90;;;;;;4954898;28;20472;-69
2022/06/05 05:42:58;;;;;;;5.40;5.10;;;24.00;99.90;;;;;;4946110;28;20486;-69
2022/06/05 05:45:24;;;;;;;4.57;4.47;;;24.20;99.90;;;;;;4958846;28;20473;-69
2022/06/05 05:47:51;;;;;;;4.43;4.33;;;24.20;99.90;;;;;;4951139;28;20558;-69
2022/06/05 05:50:18;;;;;;;5.67;5.27;;;24.40;99.40;;;;;;4953085;28;20472;-68
2022/06/05 05:52:46;;;;;;;4.40;4.30;;;24.80;99.00;;;;;;4941134;28;20483;-68
2022/06/05 05:55:14;;;;;;;4.83;4.63;;;25.10;97.90;;;;;;4958148;28;20490;-68
2022/06/05 05:57:41;;;;;;;4.73;4.63;;;25.30;96.90;;;;;;4958258;28;20476;-69
2022/06/05 06:00:12;;;;;;;4.73;4.63;;;25.00;96.00;;;;;;4959483;28;20568;-68
2022/06/05 06:02:40;;;;;;;4.40;4.30;;;24.60;96.60;;;;;;4949581;28;20468;-68
2022/06/05 06:05:09;;;;;;;4.73;4.53;;;24.00;96.50;;;;;;4965439;28;20817;-68
2022/06/05 06:07:36;;;;;;;4.93;4.73;;;23.90;96.60;;;;;;4955308;28;20846;-68
2022/06/05 06:10:04;;;;;;;4.67;4.37;;;23.80;96.90;;;;;;4959410;28;20459;-68
2022/06/05 06:12:30;;;;;;;5.03;4.80;;;24.20;97.20;;;;;;4951264;28;20502;-68
2022/06/05 06:14:57;;;;;;;4.67;4.57;;;24.40;96.40;;;;;;4959241;28;20470;-69
2022/06/05 06:17:25;;;;;;;4.90;4.70;;;24.40;96.00;;;;;;4944267;28;20477;-69
2022/06/05 06:19:52;;;;;;;4.50;4.30;;;24.50;95.90;;;;;;4952829;28;20914;-70
2022/06/05 06:22:20;;;;;;;4.07;3.97;;;24.70;95.80;;;;;;4952897;28;20498;-70
2022/06/05 06:24:46;;;;;;;4.30;4.10;;;24.80;95.10;;;;;;4956865;28;20483;-70
2022/06/05 06:27:13;;;;;;;4.70;4.50;;;25.00;95.10;;;;;;4957407;28;20880;-70
2022/06/05 06:29:40;;;;;;;4.73;4.53;;;25.40;94.50;;;;;;4951312;28;20970;-69
2022/06/05 06:32:07;;;;;;;4.40;4.30;;;25.40;94.70;;;;;;4956981;28;20576;-70
2022/06/05 06:34:36;;;;;;;3.33;3.33;;;25.90;94.40;;;;;;4948285;28;20512;-70
2022/06/05 06:37:03;;;;;;;4.10;4.00;;;26.10;92.60;;;;;;4958451;28;20485;-70
2022/06/05 06:39:29;;;;;;;4.23;4.13;;;26.00;92.10;;;;;;4945020;28;20466;-70
2022/06/05 06:41:57;;;;;;;3.93;3.93;;;25.80;92.00;;;;;;4949671;28;20501;-70
2022/06/05 06:44:25;;;;;;;3.93;3.83;;;26.00;92.20;;;;;;4947490;28;20477;-70
2022/06/05 06:46:51;;;;;;;3.83;3.73;;;25.90;92.00;;;;;;4951144;28;20886;-70
2022/06/05 06:49:18;;;;;;;4.40;4.30;;;26.10;91.60;;;;;;4957650;28;20473;-70
2022/06/05 06:51:46;;;;;;;3.80;3.70;;;26.10;91.60;;;;;;4951923;28;20480;-70
2022/06/05 06:54:13;;;;;;;3.70;3.60;;;26.60;91.30;;;;;;4954410;28;20885;-70
2022/06/05 06:56:41;;;;;;;3.37;3.37;;;26.70;90.30;;;;;;4958128;28;20482;-70
2022/06/05 06:59:07;;;;;;;3.90;3.80;;;27.20;89.20;;;;;;4957419;28;20534;-70
2022/06/05 07:01:34;;;;;;;3.20;3.20;;;27.20;88.70;;;;;;4952191;28;20500;-68
2022/06/05 07:04:02;;;;;;;3.37;3.37;;;27.30;88.10;;;;;;4956286;28;21054;-68
2022/06/05 07:06:29;;;;;;;3.70;3.70;;;27.70;86.20;;;;;;4936406;29;20469;-68
2022/06/05 07:08:57;;;;;;;3.03;3.03;;;27.90;84.80;;;;;;4945068;28;20475;-68
2022/06/05 07:11:23;;;;;;;3.60;3.60;;;27.80;83.80;;;;;;4953355;28;20491;-68
2022/06/05 07:13:51;;;;;;;3.23;3.20;;;27.90;83.10;;;;;;4957402;28;20472;-68
2022/06/05 07:16:19;;;;;;;3.13;3.00;;;28.00;81.30;;;;;;4958594;28;20483;-68
2022/06/05 07:18:46;;;;;;;3.03;3.03;;;27.70;81.00;;;;;;4956350;28;20853;-70
2022/06/05 07:21:16;;;;;;;3.40;3.30;;;27.30;80.70;;;;;;4950385;28;20499;-70
2022/06/05 07:23:43;;;;;;;3.30;3.20;;;27.40;79.90;;;;;;4955237;28;20478;-68
2022/06/05 07:26:13;;;;;;;3.23;3.07;;;27.60;80.40;;;;;;4964178;28;20467;-68
2022/06/05 07:28:40;;;;;;;2.80;2.60;;;27.80;78.70;;;;;;4957589;28;20476;-68
2022/06/05 07:31:09;;;;;;;2.40;2.40;;;27.90;77.30;;;;;;4953431;28;20490;-68
2022/06/05 07:33:37;;;;;;;3.20;3.20;;;27.90;76.10;;;;;;4947815;28;20478;-68
2022/06/05 07:36:06;;;;;;;2.77;2.67;;;28.20;75.30;;;;;;4955655;28;20481;-68
2022/06/05 07:38:34;;;;;;;2.53;2.53;;;28.40;74.30;;;;;;4951715;28;20473;-68
2022/06/05 07:41:01;;;;;;;2.33;2.23;;;28.50;71.50;;;;;;4949503;28;20502;-68
2022/06/05 07:43:30;;;;;;;2.53;2.53;;;27.80;72.00;;;;;;4957284;28;20822;-68
2022/06/05 07:45:57;;;;;;;2.40;2.40;;;27.80;73.10;;;;;;4954402;28;20475;-68
2022/06/05 07:48:24;;;;;;;2.50;2.50;;;28.00;72.60;;;;;;4951725;28;20551;-69
2022/06/05 07:56:30;;;;;;;2.57;2.57;;;27.70;69.60;;;;;;4965151;28;20512;-69
2022/06/05 07:58:58;;;;;;;2.40;2.40;;;27.80;70.90;;;;;;4942779;28;20505;-69
2022/06/05 08:01:24;;;;;;;2.20;2.20;;;28.00;70.20;;;;;;4946366;29;20499;-69
2022/06/05 08:03:51;;;;;;;2.70;2.70;;;28.20;69.60;;;;;;4939594;28;20490;-69
2022/06/05 08:06:18;;;;;;;3.17;3.07;;;28.40;68.20;;;;;;4960826;28;20469;-69
2022/06/05 08:08:45;;;;;;;2.77;2.77;;;28.70;67.80;;;;;;4950761;28;21008;-69
2022/06/05 08:11:11;;;;;;;2.17;2.17;;;28.60;65.40;;;;;;4954508;28;20478;-69
2022/06/05 08:13:38;;;;;;;2.60;2.60;;;28.80;66.40;;;;;;4947854;28;20983;-69
2022/06/05 08:16:07;;;;;;;2.20;2.20;;;28.50;65.10;;;;;;4945390;28;20965;-69
2022/06/05 08:18:34;;;;;;;2.63;2.63;;;28.30;66.20;;;;;;4958561;28;20477;-69
2022/06/05 08:21:00;;;;;;;2.40;2.40;;;28.30;64.10;;;;;;4957554;28;20503;-69
2022/06/05 08:23:27;;;;;;;2.50;2.50;;;28.30;65.20;;;;;;4964726;28;20481;-69
2022/06/05 08:25:54;;;;;;;3.10;3.00;;;28.30;64.90;;;;;;4968141;28;20475;-69
2022/06/05 08:28:23;;;;;;;2.00;2.00;;;28.30;65.20;;;;;;4959316;28;20471;-69
2022/06/05 08:30:50;;;;;;;2.37;2.37;;;28.50;65.60;;;;;;4957593;28;20984;-69
2022/06/05 08:33:18;;;;;;;2.47;2.47;;;28.10;64.50;;;;;;4957619;28;20487;-69
2022/06/05 08:35:45;;;;;;;2.87;2.87;;;27.90;65.00;;;;;;4951843;28;20501;-70
2022/06/05 08:43:57;;;;;;;2.60;2.60;;;28.10;66.00;;;;;;4948258;28;20453;-70
2022/06/05 08:46:27;;;;;;;2.83;2.83;;;28.40;64.40;;;;;;4948874;28;20546;-71
2022/06/05 08:48:58;;;;;;;3.27;3.17;;;28.50;63.30;;;;;;4955796;28;20474;-70
2022/06/05 08:51:48;;;;;;;2.63;2.53;;;28.30;64.50;;;;;;4957727;28;20492;-70
2022/06/05 08:54:19;;;;;;;2.90;2.90;;;28.10;64.70;;;;;;4951854;28;20476;-70
2022/06/05 08:56:49;;;;;;;3.20;3.20;;;27.80;65.60;;;;;;4950292;28;20566;-69
2022/06/05 08:59:23;;;;;;;3.13;2.93;;;27.20;66.40;;;;;;4953313;28;20474;-70
2022/06/05 09:01:56;;;;;;;2.57;2.53;;;27.00;67.10;;;;;;4947923;28;20491;-70
2022/06/05 09:04:47;;;;;;;2.80;2.70;;;26.90;66.00;;;;;;4944658;28;20471;-70
2022/06/05 09:07:20;;;;;;;3.20;3.10;;;26.90;67.00;;;;;;4954113;28;20474;-70
2022/06/05 09:09:51;;;;;;;3.13;3.10;;;26.60;68.80;;;;;;4948461;28;20485;-70
2022/06/05 09:12:27;;;;;;;3.53;3.20;;;26.40;68.60;;;;;;4953147;28;20477;-70
2022/06/05 09:15:00;;;;;;;2.60;2.60;;;26.30;68.40;;;;;;4946973;28;20486;-70
2022/06/05 09:17:27;;;;;;;3.77;3.67;;;26.10;70.20;;;;;;4964250;28;20466;-69
2022/06/05 09:19:58;;;;;;;3.20;3.20;;;26.10;70.20;;;;;;4939202;28;20479;-69
2022/06/05 09:22:34;;;;;;;4.07;3.97;;;26.00;70.40;;;;;;4963167;28;20496;-71
2022/06/05 09:25:21;;;;;;;3.53;3.43;;;25.80;71.40;;;;;;4952049;28;20480;-70
2022/06/05 09:28:01;;;;;;;3.60;3.60;;;25.70;71.10;;;;;;4958298;28;20501;-70
2022/06/05 09:30:33;;;;;;;3.30;3.17;;;25.60;72.00;;;;;;4944265;28;20497;-70
2022/06/05 09:33:07;;;;;;;3.90;3.80;;;25.50;73.50;;;;;;4952646;28;20477;-69
2022/06/05 09:35:39;;;;;;;4.10;4.00;;;25.20;72.90;;;;;;4960877;28;20515;-69
2022/06/05 09:38:14;;;;;;;4.33;3.17;;;25.00;74.20;;;;;;4953873;28;20480;-70
2022/06/05 09:40:50;;;;;;;3.60;3.50;;;25.00;74.10;;;;;;4953938;28;20483;-69
2022/06/05 09:43:28;;;;;;;3.53;3.43;;;25.10;74.20;;;;;;4954826;28;20561;-69
2022/06/05 09:46:10;;;;;;;3.10;3.03;;;25.20;73.10;;;;;;4953166;28;20851;-70
2022/06/05 09:48:46;;;;;;;3.40;3.33;;;25.20;73.80;;;;;;4951777;28;20540;-69
2022/06/05 09:51:17;;;;;;;3.70;3.60;;;25.30;74.50;;;;;;4958850;28;20498;-70
2022/06/05 09:53:49;;;;;;;3.77;3.67;;;25.30;74.60;;;;;;4940474;29;20993;-70
2022/06/05 09:56:34;;;;;;;3.43;3.33;;;25.30;72.90;;;;;;4947936;28;20876;-70
2022/06/05 09:59:14;;;;;;;3.27;3.20;;;25.00;72.70;;;;;;4945870;29;20496;-70
2022/06/05 10:01:50;;;;;;;2.80;2.70;;;24.80;73.90;;;;;;4951121;28;20498;-70
2022/06/05 10:04:20;;;;;;;3.20;3.10;;;24.80;74.20;;;;;;4948017;28;20961;-70
2022/06/05 10:06:51;;;;;;;4.10;3.90;;;24.90;74.30;;;;;;4945986;28;20807;-70
2022/06/05 10:09:22;;;;;;;3.80;3.60;;;25.00;74.80;;;;;;4947449;28;20611;-70
2022/06/05 10:11:57;;;;;;;3.20;3.20;;;25.00;74.30;;;;;;4948245;28;20829;-69
2022/06/05 10:14:44;;;;;;;4.00;3.90;;;25.00;74.40;;;;;;4972264;23;20543;-70
2022/06/05 10:17:44;;;;;;;3.00;2.90;;;24.90;74.20;;;;;;4950000;29;20545;-70
2022/06/05 10:20:41;;;;;;;3.50;3.40;;;24.90;75.30;;;;;;4949507;28;20979;-71
2022/06/05 10:23:41;;;;;;;3.40;3.30;;;24.70;75.50;;;;;;4944699;28;20489;-71
2022/06/05 10:26:17;;;;;;;3.07;3.00;;;24.50;75.80;;;;;;4929358;29;21109;-70
2022/06/05 10:28:45;;;;;;;3.80;3.60;;;24.60;76.50;;;;;;4937521;29;20465;-71
2022/06/05 10:31:14;;;;;;;3.97;3.87;;;24.70;75.00;;;;;;4934437;29;20484;-70
2022/06/05 10:33:49;;;;;;;2.83;2.73;;;24.70;75.40;;;;;;4932623;29;20482;-71
2022/06/05 10:36:18;;;;;;;3.43;3.33;;;24.80;74.00;;;;;;4929743;29;20484;-71
2022/06/05 10:38:56;;;;;;;2.70;2.70;;;24.80;74.00;;;;;;4938162;29;20481;-71
2022/06/05 10:41:41;;;;;;;3.43;3.43;;;24.80;74.20;;;;;;4937367;29;20467;-71
2022/06/05 10:44:19;;;;;;;3.47;3.40;;;24.90;74.70;;;;;;4936389;29;20504;-71
2022/06/05 10:47:01;;;;;;;3.53;3.43;;;25.00;72.50;;;;;;4928717;29;20466;-71
2022/06/05 10:49:33;;;;;;;3.93;3.73;;;25.00;73.00;;;;;;4939594;29;20473;-71
2022/06/05 10:52:13;;;;;;;3.40;3.30;;;25.00;73.00;;;;;;4927453;29;20470;-71
2022/06/05 10:54:50;;;;;;;3.33;3.33;;;25.00;73.90;;;;;;4934345;29;20489;-71
2022/06/05 10:57:21;;;;;;;3.80;3.63;;;25.10;73.60;;;;;;4943906;29;20469;-72
2022/06/05 10:59:57;;;;;;;3.20;3.20;;;25.10;72.90;;;;;;4941234;29;20986;-71
2022/06/05 11:02:50;;;;;;;3.80;3.70;;;25.00;72.40;;;;;;4933234;29;20493;-71
2022/06/05 11:05:32;;;;;;;3.40;3.30;;;25.00;73.40;;;;;;4938095;28;21033;-70
2022/06/05 11:08:09;;;;;;;3.50;3.40;;;25.10;72.70;;;;;;4937066;29;20461;-70
2022/06/05 11:13:44;;;;;;;3.87;3.77;;;25.30;70.80;;;;;;4944225;29;20468;-71
2022/06/05 11:16:23;;;;;;;2.90;2.80;;;25.30;70.40;;;;;;4939617;28;20516;-71
2022/06/05 11:18:57;;;;;;;3.17;3.07;;;25.40;72.00;;;;;;4945655;29;20473;-70
2022/06/05 11:21:25;;;;;;;3.80;3.70;;;25.60;72.00;;;;;;4937298;28;20536;-71
2022/06/05 11:23:55;;;;;;;3.40;3.40;;;25.60;71.80;;;;;;4937303;29;20495;-70
2022/06/05 11:26:31;;;;;;;2.60;2.60;;;25.60;71.10;;;;;;4943873;28;20477;-71
2022/06/05 11:29:09;;;;;;;3.80;3.10;;;25.70;70.00;;;;;;4937823;29;20477;-70
2022/06/05 11:31:48;;;;;;;3.30;3.30;;;25.60;68.60;;;;;;4936089;28;20469;-71
2022/06/05 11:34:26;;;;;;;3.53;3.43;;;25.70;70.20;;;;;;4935106;29;21019;-71
2022/06/05 11:36:55;;;;;;;3.60;3.50;;;25.80;69.50;;;;;;4941105;29;20472;-70
2022/06/05 11:39:31;;;;;;;3.50;3.40;;;25.90;67.80;;;;;;4932833;29;20551;-71
2022/06/05 11:42:12;;;;;;;3.40;3.30;;;25.80;67.50;;;;;;4936919;29;20501;-69
2022/06/05 11:44:45;;;;;;;2.93;2.93;;;25.60;69.50;;;;;;4926092;29;20505;-70
2022/06/05 11:47:31;;;;;;;2.90;2.90;;;25.70;69.20;;;;;;4936608;29;20478;-71
2022/06/05 11:50:04;;;;;;;3.50;3.40;;;25.70;68.00;;;;;;4940333;29;20469;-70
2022/06/05 11:52:38;;;;;;;3.57;3.40;;;25.70;68.80;;;;;;4927349;29;20457;-70
2022/06/05 11:55:17;;;;;;;2.80;2.80;;;25.80;68.50;;;;;;4935362;29;20549;-70
2022/06/05 11:57:51;;;;;;;3.47;3.27;;;25.90;68.50;;;;;;4935029;29;20528;-70
2022/06/05 12:00:21;;;;;;;3.40;3.40;;;25.90;68.30;;;;;;4933948;29;20474;-69
2022/06/05 12:02:55;;;;;;;3.53;3.43;;;25.90;68.90;;;;;;4934274;29;20488;-70
2022/06/05 12:05:30;;;;;;;3.00;3.00;;;26.00;68.90;;;;;;4934698;29;20489;-69
2022/06/05 12:08:05;;;;;;;3.40;3.30;;;25.90;67.40;;;;;;4933558;29;20473;-68
2022/06/05 12:10:35;;;;;;;3.07;3.00;;;25.90;67.40;;;;;;4933702;29;20958;-69
2022/06/05 12:13:27;;;;;;;3.27;3.17;;;25.80;67.50;;;;;;4933746;29;20573;-70
2022/06/05 12:16:01;;;;;;;3.93;3.73;;;25.80;68.20;;;;;;4933973;29;20982;-68
2022/06/05 12:18:31;;;;;;;3.70;3.50;;;26.00;68.20;;;;;;4934183;29;20493;-70
2022/06/05 12:21:07;;;;;;;3.23;3.23;;;26.10;66.40;;;;;;4923013;29;20472;-71
2022/06/05 12:23:38;;;;;;;3.10;3.10;;;26.00;66.40;;;;;;4914863;29;20513;-70
2022/06/05 12:26:16;;;;;;;3.40;3.40;;;26.10;67.50;;;;;;4915235;29;20474;-71
2022/06/05 12:28:50;;;;;;;3.40;3.30;;;26.40;67.90;;;;;;4926668;29;20466;-70
2022/06/05 12:31:23;;;;;;;3.27;3.17;;;26.40;69.60;;;;;;4933189;29;20477;-71
2022/06/05 12:33:55;;;;;;;3.27;3.20;;;26.40;67.40;;;;;;4936099;29;20876;-71
2022/06/05 12:36:29;;;;;;;4.20;3.93;;;26.50;67.10;;;;;;4931038;28;20470;-70
2022/06/05 12:38:59;;;;;;;3.23;3.23;;;26.30;66.50;;;;;;4929666;29;20549;-68
2022/06/05 12:41:41;;;;;;;3.27;3.17;;;26.40;69.10;;;;;;4931258;29;20470;-68
2022/06/05 12:44:19;;;;;;;4.20;4.00;;;26.40;66.80;;;;;;4938444;29;20987;-69
2022/06/05 12:46:53;;;;;;;3.03;3.03;;;26.40;67.60;;;;;;4943431;29;20465;-70
2022/06/05 12:49:25;;;;;;;3.77;3.57;;;26.30;67.90;;;;;;4937449;29;20877;-70
2022/06/05 12:52:11;;;;;;;3.40;3.30;;;26.30;68.40;;;;;;4928313;29;20465;-69
2022/06/05 12:54:46;;;;;;;3.67;3.57;;;26.30;68.50;;;;;;4931654;29;20493;-69
2022/06/05 12:57:19;;;;;;;2.80;2.80;;;26.40;67.70;;;;;;4923675;29;20476;-71
2022/06/05 12:59:54;;;;;;;4.77;4.57;;;26.30;67.50;;;;;;4934204;29;20469;-70
2022/06/05 13:02:31;;;;;;;3.60;3.50;;;26.20;67.90;;;;;;4932671;29;20492;-70
2022/06/05 13:05:05;;;;;;;3.60;3.50;;;26.40;66.70;;;;;;4937715;29;20572;-69
2022/06/05 13:07:39;;;;;;;4.00;3.90;;;26.40;68.20;;;;;;4922290;29;20485;-70
2022/06/05 13:10:20;;;;;;;3.50;3.43;;;26.50;68.30;;;;;;4936214;29;20470;-70
2022/06/05 13:12:52;;;;;;;3.20;3.20;;;26.50;66.90;;;;;;4929254;29;20563;-69
2022/06/05 13:15:25;;;;;;;3.60;3.47;;;26.50;68.40;;;;;;4935742;29;20560;-69
2022/06/05 13:17:56;;;;;;;3.57;3.43;;;26.60;67.60;;;;;;4937183;29;20458;-70
2022/06/05 13:20:32;;;;;;;3.47;3.40;;;26.60;67.40;;;;;;4942668;29;20474;-70
2022/06/05 13:23:08;;;;;;;3.83;3.73;;;26.70;66.70;;;;;;4931240;29;20497;-70
2022/06/05 13:25:50;;;;;;;3.00;3.00;;;26.80;65.10;;;;;;4938204;29;20503;-69
2022/06/05 13:28:40;;;;;;;3.40;3.30;;;26.70;66.80;;;;;;4936158;29;20844;-70
2022/06/05 13:31:20;;;;;;;3.47;3.37;;;26.70;66.00;;;;;;4931351;29;20634;-70
2022/06/05 13:33:51;;;;;;;3.07;3.07;;;26.60;66.10;;;;;;4927854;29;20468;-70
2022/06/05 13:36:29;;;;;;;3.27;3.20;;;26.70;66.30;;;;;;4938008;28;20823;-71
2022/06/05 13:39:02;;;;;;;3.63;3.63;;;26.70;67.70;;;;;;4933553;29;20531;-71
2022/06/05 13:41:36;;;;;;;2.80;2.80;;;26.80;66.00;;;;;;4928817;28;20527;-70
2022/06/05 13:44:15;;;;;;;3.03;3.03;;;26.80;64.90;;;;;;4935985;29;20502;-70
2022/06/05 13:46:54;;;;;;;3.87;3.53;;;26.80;64.90;;;;;;4936427;28;20559;-71
2022/06/05 13:49:35;;;;;;;3.30;3.30;;;26.80;63.70;;;;;;4937496;29;20469;-70
2022/06/05 13:52:09;;;;;;;3.93;3.73;;;26.80;63.40;;;;;;4935421;29;20469;-70
2022/06/05 13:54:42;;;;;;;3.20;3.20;;;26.80;61.40;;;;;;4928764;29;20505;-70
2022/06/05 13:57:16;;;;;;;2.60;2.60;;;26.90;60.50;;;;;;4941829;29;20468;-70
2022/06/05 13:59:49;;;;;;;2.93;2.80;;;26.90;60.10;;;;;;4935802;28;20476;-70
2022/06/05 14:02:34;;;;;;;2.43;2.43;;;27.00;59.50;;;;;;4939234;29;20489;-71
2022/06/05 14:05:05;;;;;;;2.50;2.50;;;27.10;59.40;;;;;;4936536;29;20485;-71
2022/06/05 14:07:37;;;;;;;3.23;3.20;;;27.20;59.90;;;;;;4942142;29;20477;-71
2022/06/05 14:10:09;;;;;;;2.10;2.10;;;27.20;59.30;;;;;;4935494;29;20462;-71
2022/06/05 14:12:45;;;;;;;2.60;2.60;;;27.10;58.30;;;;;;4935873;29;20474;-69
2022/06/05 14:15:23;;;;;;;3.17;3.07;;;27.10;58.50;;;;;;4934141;29;20489;-69
2022/06/05 14:17:52;;;;;;;2.00;2.00;;;27.10;58.00;;;;;;4930561;29;20469;-69
2022/06/05 14:20:22;;;;;;;2.07;2.00;;;27.00;56.20;;;;;;4926351;29;20481;-69
2022/06/05 14:22:54;;;;;;;1.83;1.80;;;26.90;53.60;;;;;;4927935;29;20496;-70
2022/06/05 14:25:26;;;;;;;2.30;2.30;;;26.90;52.80;;;;;;4923744;29;20549;-70
2022/06/05 14:27:56;;;;;;;2.10;2.10;;;26.80;54.00;;;;;;4941548;29;20568;-70
2022/06/05 14:30:26;;;;;;;2.90;2.80;;;26.90;54.50;;;;;;4938601;29;20584;-69
2022/06/05 14:32:55;;;;;;;2.73;2.63;;;26.90;54.70;;;;;;4936052;29;20461;-70
2022/06/05 14:35:33;;;;;;;2.43;2.43;;;26.80;55.10;;;;;;4937880;29;20500;-69
2022/06/05 14:38:08;;;;;;;2.30;2.30;;;26.90;56.90;;;;;;4937269;29;20477;-70
2022/06/05 14:40:49;;;;;;;2.63;2.63;;;26.90;56.00;;;;;;4932438;29;20464;-70
2022/06/05 14:43:20;;;;;;;2.90;2.77;;;26.90;56.30;;;;;;4927956;29;21007;-69
2022/06/05 14:45:52;;;;;;;3.30;3.20;;;26.70;56.10;;;;;;4928854;29;20494;-69
2022/06/05 14:48:28;;;;;;;2.83;2.73;;;26.80;56.40;;;;;;4927741;29;20836;-70
2022/06/05 14:50:59;;;;;;;2.67;2.63;;;26.80;56.70;;;;;;4941160;29;20470;-69
2022/06/05 14:53:41;;;;;;;2.73;2.73;;;26.80;58.00;;;;;;4930007;29;20940;-71
2022/06/05 14:59:09;;;;;;;3.27;3.27;;;26.80;58.30;;;;;;4929556;29;20514;-69
2022/06/05 15:01:42;;;;;;;2.90;2.90;;;26.80;58.40;;;;;;4943461;29;20472;-70
2022/06/05 15:04:18;;;;;;;2.57;2.57;;;26.90;57.80;;;;;;4942510;29;20500;-70
2022/06/05 15:06:49;;;;;;;2.77;2.77;;;26.70;56.60;;;;;;4931271;29;21149;-69
2022/06/05 15:09:22;;;;;;;2.47;2.47;;;26.60;57.00;;;;;;4929925;28;20469;-69
2022/06/05 15:11:54;;;;;;;2.13;2.13;;;26.60;57.30;;;;;;4935830;29;20481;-69
2022/06/05 15:14:27;;;;;;;2.30;2.30;;;26.60;57.50;;;;;;4941086;28;20492;-71
2022/06/05 15:17:05;;;;;;;2.73;2.73;;;26.70;58.60;;;;;;4939613;29;20477;-69
2022/06/05 15:19:36;;;;;;;3.00;2.90;;;26.70;57.90;;;;;;4932587;28;20473;-69
2022/06/05 15:22:29;;;;;;;2.50;2.50;;;26.60;57.40;;;;;;4926412;29;20306;-70
2022/06/05 15:25:05;;;;;;;2.27;2.27;;;26.60;57.50;;;;;;4931832;29;20522;-70
2022/06/05 15:27:40;;;;;;;2.03;2.03;;;26.60;57.40;;;;;;4934425;29;20573;-71
2022/06/05 15:30:13;;;;;;;2.47;2.47;;;26.50;57.40;;;;;;4920457;29;20516;-70
2022/06/05 15:32:47;;;;;;;2.30;2.20;;;26.40;57.60;;;;;;4936239;29;20484;-70
2022/06/05 15:35:20;;;;;;;2.50;2.50;;;26.40;57.80;;;;;;4933375;29;20992;-70
2022/06/05 15:37:58;;;;;;;2.77;2.70;;;26.30;57.80;;;;;;4931426;29;20551;-70
2022/06/05 15:40:31;;;;;;;2.97;2.90;;;26.20;57.50;;;;;;4932752;28;20487;-71
2022/06/05 15:43:14;;;;;;;2.60;2.53;;;26.20;57.90;;;;;;4931095;29;20503;-71
2022/06/05 15:45:51;;;;;;;2.90;2.90;;;26.20;58.40;;;;;;4936638;29;20496;-71
2022/06/05 15:48:37;;;;;;;2.70;2.70;;;26.10;59.00;;;;;;4940479;28;20477;-70
2022/06/05 15:51:18;;;;;;;3.47;3.27;;;26.10;59.50;;;;;;4922367;29;20959;-71
2022/06/05 15:54:10;;;;;;;2.67;2.67;;;26.10;58.90;;;;;;4934791;29;20516;-71
2022/06/05 15:56:53;;;;;;;2.57;2.57;;;26.10;58.90;;;;;;4939571;29;20477;-71
2022/06/05 15:59:31;;;;;;;2.53;2.50;;;26.00;58.50;;;;;;4936596;28;20466;-71
2022/06/05 16:02:03;;;;;;;2.53;2.53;;;26.00;58.30;;;;;;4929640;29;20960;-71
2022/06/05 16:04:33;;;;;;;2.60;2.60;;;26.00;58.40;;;;;;4934997;28;20497;-72
2022/06/05 16:07:07;;;;;;;2.17;2.07;;;26.00;58.50;;;;;;4918234;29;20470;-72
2022/06/05 16:09:40;;;;;;;2.33;2.33;;;26.00;59.10;;;;;;4932990;29;20479;-71
2022/06/05 16:12:13;;;;;;;3.00;3.00;;;25.90;59.00;;;;;;4935173;29;20461;-71
2022/06/05 16:14:56;;;;;;;2.30;2.30;;;25.90;59.00;;;;;;4914499;29;20496;-70
2022/06/05 16:17:40;;;;;;;2.70;2.67;;;25.80;59.00;;;;;;4932249;29;20462;-70
2022/06/05 16:20:21;;;;;;;2.43;2.43;;;25.70;59.50;;;;;;4926279;29;20848;-69
2022/06/05 16:22:55;;;;;;;2.67;2.60;;;25.80;59.70;;;;;;4919921;29;20831;-70
2022/06/05 16:25:28;;;;;;;3.50;3.20;;;25.80;59.70;;;;;;4936558;29;21079;-70
2022/06/05 16:28:00;;;;;;;2.67;2.67;;;25.70;60.30;;;;;;4921856;29;20505;-70
2022/06/05 16:30:34;;;;;;;2.50;2.40;;;25.60;59.50;;;;;;4934855;29;20469;-71
2022/06/05 16:33:00;;;;;;;2.40;2.40;;;25.60;59.60;;;;;;4932310;29;20468;-70
2022/06/05 16:38:45;;;;;;;2.77;2.67;;;25.60;59.40;;;;;;4903274;29;20492;-70
2022/06/05 16:41:12;;;;;;;3.07;2.97;;;25.50;59.40;;;;;;4933248;29;20483;-70
2022/06/05 16:43:40;;;;;;;2.47;2.47;;;25.50;59.40;;;;;;4937805;29;20493;-70
2022/06/05 16:46:09;;;;;;;2.60;2.60;;;25.40;59.60;;;;;;4936611;29;20489;-70
2022/06/05 16:48:51;;;;;;;2.80;2.70;;;25.40;60.00;;;;;;4930802;29;20814;-71
2022/06/05 16:51:18;;;;;;;2.50;2.50;;;25.30;59.80;;;;;;4928435;29;20462;-70
2022/06/05 16:53:48;;;;;;;2.30;2.30;;;25.30;59.90;;;;;;4921886;29;20477;-70
2022/06/05 16:56:17;;;;;;;2.53;2.53;;;25.30;60.30;;;;;;4929455;29;20467;-70
2022/06/05 16:58:57;;;;;;;2.70;2.70;;;25.20;60.90;;;;;;4924842;29;20480;-70
2022/06/05 17:01:51;;;;;;;3.77;3.67;;;25.30;60.60;;;;;;4939126;28;20472;-70
2022/06/05 17:04:29;;;;;;;3.63;3.50;;;25.30;60.50;;;;;;4934986;29;20497;-70
2022/06/05 17:07:25;;;;;;;3.13;3.13;;;25.30;60.70;;;;;;4930131;29;20461;-70
2022/06/05 17:09:54;;;;;;;3.30;3.20;;;25.30;61.30;;;;;;4925229;29;20955;-70
2022/06/05 17:12:47;;;;;;;3.50;3.40;;;25.30;61.90;;;;;;4924000;29;20467;-70
2022/06/05 17:15:27;;;;;;;3.40;3.30;;;25.20;61.00;;;;;;4917305;29;20871;-71
2022/06/05 17:17:57;;;;;;;3.17;3.07;;;25.20;61.60;;;;;;4923477;29;20469;-71
2022/06/05 17:20:27;;;;;;;3.10;3.00;;;25.20;62.60;;;;;;4927179;29;20472;-71
2022/06/05 17:22:58;;;;;;;2.80;2.80;;;25.10;61.70;;;;;;4925491;29;20474;-70
2022/06/05 17:25:46;;;;;;;2.50;2.40;;;25.10;62.30;;;;;;4925455;29;20506;-70
2022/06/05 17:28:32;;;;;;;2.60;2.60;;;25.00;62.30;;;;;;4940794;28;20470;-71
2022/06/05 17:31:13;;;;;;;2.53;2.43;;;24.90;62.20;;;;;;4943543;29;20678;-71
2022/06/05 17:33:47;;;;;;;2.60;2.60;;;24.80;62.10;;;;;;4935640;29;20458;-71
2022/06/05 17:36:39;;;;;;;1.93;1.93;;;24.80;62.50;;;;;;4935114;29;20472;-71
2022/06/05 17:39:29;;;;;;;2.97;2.87;;;24.80;62.20;;;;;;4929635;29;20462;-71